Time;durP1;ratioP1;P1;durP2;ratioP2;P2;SDS_P1;SDS_P2;PMS_P1;PMS_P2;Temp;Humidity;BMP_temperature;BMP_pressure;BME280_temperature;BME280_humidity;BME280_pressure;Samples;Min_cycle;Max_cycle;Signal;HPM_P1;HPM_P2
2024/01/13 00:01:06;;;;;;;28.90;14.90;;;;;;;-12.21;100.00;101383.60;109792;1241;73561;-74
2024/01/13 00:03:54;;;;;;;28.20;13.90;;;;;;;-12.24;100.00;101382.33;109953;1237;72203;-75
2024/01/13 00:06:23;;;;;;;24.90;13.50;;;;;;;-12.21;100.00;101380.21;109789;1237;70495;-75
2024/01/13 00:08:52;;;;;;;28.50;14.20;;;;;;;-12.25;100.00;101374.91;109924;1236;72357;-74
2024/01/13 00:11:21;;;;;;;24.80;12.60;;;;;;;-12.25;100.00;101375.41;109961;1238;59561;-74
2024/01/13 00:13:50;;;;;;;28.30;14.70;;;;;;;-12.15;100.00;101371.52;109789;1236;59578;-75
2024/01/13 00:16:19;;;;;;;32.70;15.30;;;;;;;-12.08;100.00;101367.55;109970;1237;74355;-73
2024/01/13 00:18:47;;;;;;;28.50;14.80;;;;;;;-11.99;100.00;101363.11;109798;1236;72733;-75
2024/01/13 00:21:17;;;;;;;29.70;15.10;;;;;;;-11.90;100.00;101364.38;109716;1238;70391;-74
2024/01/13 00:23:45;;;;;;;28.00;14.50;;;;;;;-11.78;100.00;101359.34;109820;1237;74536;-75
2024/01/13 00:26:14;;;;;;;24.40;13.80;;;;;;;-11.63;100.00;101358.40;109986;1237;63473;-74
2024/01/13 00:28:43;;;;;;;23.20;12.60;;;;;;;-11.49;100.00;101353.24;110010;1238;61613;-74
2024/01/13 00:31:12;;;;;;;26.80;14.00;;;;;;;-11.37;100.00;101347.34;110004;1237;72959;-74
2024/01/13 00:33:43;;;;;;;26.60;13.40;;;;;;;-11.25;100.00;101349.69;109997;1236;70650;-74
2024/01/13 00:36:12;;;;;;;25.80;14.00;;;;;;;-11.13;100.00;101337.20;109975;1238;70486;-73
2024/01/13 00:38:42;;;;;;;31.20;13.80;;;;;;;-11.06;100.00;101333.54;109985;1237;74330;-74
2024/01/13 00:41:11;;;;;;;23.70;11.60;;;;;;;-10.96;100.00;101328.58;110029;1238;62080;-74
2024/01/13 00:43:40;;;;;;;27.00;13.00;;;;;;;-10.85;100.00;101327.83;109931;1238;60669;-74
2024/01/13 00:46:09;;;;;;;20.90;13.30;;;;;;;-10.74;100.00;101317.67;109851;1237;72285;-74
2024/01/13 00:48:38;;;;;;;26.30;13.30;;;;;;;-10.64;100.00;101307.30;110147;1237;70405;-74
2024/01/13 00:51:11;;;;;;;25.80;12.80;;;;;;;-10.54;100.00;101300.98;109970;1237;70261;-74
2024/01/13 00:53:43;;;;;;;26.30;12.00;;;;;;;-10.43;100.00;101287.90;110040;1236;74788;-74
2024/01/13 00:56:12;;;;;;;25.30;13.10;;;;;;;-10.32;100.00;101281.42;109852;1240;61299;-73
2024/01/13 00:58:41;;;;;;;25.60;12.30;;;;;;;-10.24;100.00;101281.91;110161;1238;59667;-74
2024/01/13 01:01:14;;;;;;;25.00;11.20;;;;;;;-10.14;100.00;101278.23;110166;1237;72435;-74
2024/01/13 01:03:46;;;;;;;21.50;11.10;;;;;;;-10.05;100.00;101277.40;109967;1237;71511;-74
2024/01/13 01:06:17;;;;;;;25.90;11.50;;;;;;;-9.94;100.00;101276.45;109995;1237;71618;-74
2024/01/13 01:08:46;;;;;;;20.80;11.00;;;;;;;-9.85;100.00;101267.02;109879;1237;71877;-73
2024/01/13 01:11:15;;;;;;;22.20;11.10;;;;;;;-9.82;100.00;101261.17;110195;1238;61114;-76
2024/01/13 01:13:44;;;;;;;19.10;10.30;;;;;;;-9.76;100.00;101256.07;110112;1238;60890;-75
2024/01/13 01:16:13;;;;;;;23.60;11.00;;;;;;;-9.75;100.00;101250.88;109962;1237;74800;-74
2024/01/13 01:18:42;;;;;;;16.20;9.30;;;;;;;-9.72;100.00;101249.91;110025;1236;69855;-73
2024/01/13 01:21:15;;;;;;;19.50;10.20;;;;;;;-9.68;100.00;101243.73;110177;1237;68591;-75
2024/01/13 01:23:48;;;;;;;;;;;;;;;-9.64;100.00;101235.24;109759;1237;71438;-74
2024/01/13 01:26:18;;;;;;;20.50;10.10;;;;;;;-9.63;100.00;101230.02;109976;1240;62198;-74
2024/01/13 01:28:47;;;;;;;23.10;10.00;;;;;;;-9.63;100.00;101222.94;109994;1237;60585;-74
2024/01/13 01:31:15;;;;;;;18.10;9.20;;;;;;;-9.63;100.00;101214.83;110129;1236;72486;-73
2024/01/13 01:33:44;;;;;;;22.50;11.80;;;;;;;-9.61;100.00;101215.55;109994;1235;72186;-74
2024/01/13 01:36:13;;;;;;;18.50;10.60;;;;;;;-9.72;100.00;101213.49;110153;1237;68558;-73
2024/01/13 01:38:42;;;;;;;22.70;12.00;;;;;;;-9.69;100.00;101208.00;109982;1236;70968;-74
2024/01/13 01:41:15;;;;;;;18.70;10.30;;;;;;;-9.67;100.00;101203.64;109958;1236;61875;-74
2024/01/13 01:43:46;;;;;;;18.10;9.90;;;;;;;-9.76;100.00;101203.83;109705;1241;59210;-74
2024/01/13 01:46:18;;;;;;;14.40;9.20;;;;;;;-9.70;100.00;101204.43;109829;1237;73428;-75
2024/01/13 01:48:51;;;;;;;24.30;11.50;;;;;;;-9.65;100.00;101195.92;109984;1236;72148;-74
2024/01/13 01:51:21;;;;;;;18.00;7.90;;;;;;;-9.67;100.00;101194.86;109846;1237;68426;-74
2024/01/13 01:53:50;;;;;;;17.40;8.70;;;;;;;-9.57;100.00;101191.86;109939;1237;73032;-73
2024/01/13 01:56:25;;;;;;;19.30;9.70;;;;;;;-9.54;100.00;101186.83;110032;1238;62308;-74
2024/01/13 01:58:55;;;;;;;16.00;9.00;;;;;;;-9.40;100.00;101184.55;109929;1237;59085;-74
2024/01/13 02:01:24;;;;;;;16.60;9.60;;;;;;;-9.32;100.00;101178.44;109954;1238;73299;-73
2024/01/13 02:03:54;;;;;;;20.50;10.30;;;;;;;-9.21;100.00;101175.90;109833;1236;71127;-75
2024/01/13 02:06:24;;;;;;;20.30;9.30;;;;;;;-9.18;100.00;101169.21;110116;1236;71664;-74
2024/01/13 02:08:54;;;;;;;16.80;9.00;;;;;;;-9.08;100.00;101169.87;110005;1237;71571;-74
2024/01/13 02:11:23;;;;;;;18.50;9.50;;;;;;;-8.98;100.00;101170.02;109786;1241;62172;-74
2024/01/13 02:13:52;;;;;;;19.90;9.40;;;;;;;-8.84;100.00;101165.15;109916;1237;60608;-74
2024/01/13 02:16:20;;;;;;;12.40;7.30;;;;;;;-8.69;100.00;101164.33;109965;1238;73231;-74
2024/01/13 02:18:49;;;;;;;13.90;8.50;;;;;;;-8.58;100.00;101151.83;109963;1238;70755;-74
2024/01/13 02:21:18;;;;;;;13.20;6.80;;;;;;;-8.43;100.00;101144.74;109973;1237;67615;-74
2024/01/13 02:23:47;;;;;;;13.20;7.30;;;;;;;-8.24;100.00;101143.23;109948;1237;71037;-74
2024/01/13 02:26:16;;;;;;;12.50;7.70;;;;;;;-8.15;100.00;101142.48;109866;1239;60526;-74
2024/01/13 02:28:45;;;;;;;15.60;8.00;;;;;;;-8.08;100.00;101132.77;109977;1238;61190;-74
2024/01/13 02:31:17;;;;;;;16.30;8.20;;;;;;;-7.99;100.00;101129.31;110020;1237;74021;-73
2024/01/13 02:33:51;;;;;;;14.10;7.90;;;;;;;-7.87;100.00;101126.71;109796;1236;72721;-74
2024/01/13 02:36:23;;;;;;;12.60;7.10;;;;;;;-7.68;100.00;101129.94;109821;1241;69041;-74
2024/01/13 02:38:53;;;;;;;13.00;7.20;;;;;;;-7.61;100.00;101122.21;109907;1238;73886;-74
2024/01/13 02:41:22;;;;;;;12.90;6.50;;;;;;;-7.56;100.00;101119.73;110065;1238;62961;-75
2024/01/13 02:43:52;;;;;;;16.60;7.60;;;;;;;-7.54;100.00;101113.15;110086;1238;59441;-73
2024/01/13 02:46:20;;;;;;;12.50;6.10;;;;;;;-7.41;100.00;101113.08;110055;1237;73626;-74
2024/01/13 02:48:54;;;;;;;13.80;7.00;;;;;;;-7.29;100.00;101108.92;110108;1235;70339;-74
2024/01/13 02:51:24;;;;;;;13.30;6.70;;;;;;;-7.20;100.00;101106.29;109879;1237;70444;-73
2024/01/13 02:53:53;;;;;;;11.10;6.30;;;;;;;-7.16;100.00;101104.10;109761;1236;74057;-74
2024/01/13 02:56:22;;;;;;;11.60;6.30;;;;;;;-7.12;100.00;101099.05;109871;1238;60979;-74
2024/01/13 02:58:51;;;;;;;12.90;7.00;;;;;;;-7.04;100.00;101094.03;109892;1238;60228;-74
2024/01/13 03:01:19;;;;;;;13.50;6.40;;;;;;;-7.05;100.00;101088.27;109857;1237;74869;-73
2024/01/13 03:03:49;;;;;;;13.00;6.60;;;;;;;-6.98;100.00;101089.66;109907;1236;70634;-74
2024/01/13 03:06:24;;;;;;;10.00;4.70;;;;;;;-6.85;100.00;101082.45;109874;1238;70506;-74
2024/01/13 03:08:55;;;;;;;10.80;5.70;;;;;;;-6.70;100.00;101077.09;109511;1238;73264;-74
2024/01/13 03:11:24;;;;;;;10.90;5.20;;;;;;;-6.73;100.00;101068.42;109731;1240;62178;-74
2024/01/13 03:13:55;;;;;;;11.10;6.30;;;;;;;-6.79;100.00;101062.48;109723;1237;60529;-74
2024/01/13 03:16:26;;;;;;;11.20;6.40;;;;;;;-6.93;100.00;101060.05;109634;1238;74243;-74
2024/01/13 03:18:55;;;;;;;13.50;7.10;;;;;;;-6.88;100.00;101056.00;109775;1238;72633;-74
2024/01/13 03:21:25;;;;;;;13.50;6.90;;;;;;;-6.87;100.00;101055.85;109859;1236;70262;-74
2024/01/13 03:23:53;;;;;;;13.50;6.90;;;;;;;-6.82;100.00;101053.16;109738;1237;73327;-74
2024/01/13 03:26:22;;;;;;;12.70;7.00;;;;;;;-6.84;100.00;101053.30;109902;1238;61571;-74
2024/01/13 03:28:51;;;;;;;14.10;7.10;;;;;;;-6.72;100.00;101056.42;109933;1238;60107;-74
2024/01/13 03:31:20;;;;;;;12.40;6.20;;;;;;;-6.75;100.00;101045.56;109814;1238;72124;-74
2024/01/13 03:33:49;;;;;;;12.20;5.70;;;;;;;-6.61;100.00;101035.95;110071;1238;72474;-74
2024/01/13 03:36:18;;;;;;;12.30;6.70;;;;;;;-6.54;100.00;101033.09;110323;1238;68027;-73
2024/01/13 03:38:48;;;;;;;11.70;6.10;;;;;;;-6.54;100.00;101031.22;110143;1237;73381;-73
2024/01/13 03:41:22;;;;;;;10.90;6.50;;;;;;;-6.55;100.00;101028.35;110101;1241;63743;-74
2024/01/13 03:43:51;;;;;;;11.20;6.20;;;;;;;-6.56;100.00;101025.29;109974;1241;59191;-74
2024/01/13 03:46:20;;;;;;;11.40;6.70;;;;;;;-6.66;100.00;101020.52;110162;1238;71622;-73
2024/01/13 03:48:49;;;;;;;11.00;6.50;;;;;;;-6.73;100.00;101020.66;110176;1238;70769;-74
2024/01/13 03:51:18;;;;;;;14.30;6.30;;;;;;;-6.56;100.00;101021.57;110183;1237;71040;-73
2024/01/13 03:53:47;;;;;;;11.20;5.80;;;;;;;-6.59;100.00;101016.64;109999;1241;71704;-74
2024/01/13 03:56:16;;;;;;;10.30;5.80;;;;;;;-6.48;100.00;101015.66;110129;1238;61289;-73
2024/01/13 03:58:44;;;;;;;14.20;6.90;;;;;;;-6.36;100.00;101008.38;110022;1237;61197;-73
2024/01/13 04:01:15;;;;;;;13.70;6.30;;;;;;;-6.48;100.00;101009.89;110118;1238;73384;-73
2024/01/13 04:03:43;;;;;;;10.70;6.10;;;;;;;-6.35;100.00;101008.73;109931;1238;72114;-74
2024/01/13 04:06:12;;;;;;;13.40;6.00;;;;;;;-6.24;100.00;101006.89;110131;1237;69973;-74
2024/01/13 04:08:41;;;;;;;10.80;5.80;;;;;;;-6.20;100.00;101002.98;109937;1238;73510;-73
2024/01/13 04:11:10;;;;;;;11.00;6.10;;;;;;;-6.17;100.00;101004.17;110112;1238;60686;-74
2024/01/13 04:13:39;;;;;;;12.50;6.40;;;;;;;-6.16;100.00;101002.82;110154;1238;59686;-73
2024/01/13 04:16:09;;;;;;;13.10;6.50;;;;;;;-6.19;100.00;101008.59;110153;1237;73022;-73
2024/01/13 04:18:38;;;;;;;12.00;6.60;;;;;;;-6.10;100.00;101011.13;110076;1239;69899;-73
2024/01/13 04:21:08;;;;;;;11.00;6.20;;;;;;;-6.11;100.00;101003.66;110113;1238;70208;-73
2024/01/13 04:23:51;;;;;;;12.00;5.90;;;;;;;-6.12;100.00;101000.10;110052;1236;72755;-73
2024/01/13 04:26:21;;;;;;;10.00;5.90;;;;;;;-6.25;100.00;100992.30;109719;1240;63194;-73
2024/01/13 04:28:50;;;;;;;10.70;6.30;;;;;;;-6.29;100.00;100992.63;109951;1238;59285;-73
2024/01/13 04:31:19;;;;;;;16.40;6.60;;;;;;;-6.35;100.00;101001.61;110017;1237;73464;-73
2024/01/13 04:33:47;;;;;;;12.50;5.80;;;;;;;-6.27;100.00;100993.30;110107;1237;72633;-73
2024/01/13 04:36:17;;;;;;;12.30;5.80;;;;;;;-6.26;100.00;100991.79;110128;1236;70833;-75
2024/01/13 04:38:46;;;;;;;12.50;7.30;;;;;;;-6.46;100.00;100990.40;110037;1239;73065;-74
2024/01/13 04:41:15;;;;;;;11.40;6.00;;;;;;;-6.51;100.00;100984.46;109925;1238;60501;-74
2024/01/13 04:43:44;;;;;;;12.20;6.20;;;;;;;-6.71;100.00;100985.27;109884;1238;59477;-73
2024/01/13 04:46:14;;;;;;;11.90;5.70;;;;;;;-6.73;100.00;100987.97;109954;1238;72835;-75
2024/01/13 04:48:43;;;;;;;12.00;6.40;;;;;;;-6.77;100.00;100987.12;110042;1238;71711;-74
2024/01/13 04:51:12;;;;;;;13.40;6.70;;;;;;;-6.73;100.00;100978.66;110098;1239;68989;-74
2024/01/13 04:53:41;;;;;;;10.90;5.60;;;;;;;-6.79;100.00;100977.27;109873;1241;71507;-74
2024/01/13 04:56:10;;;;;;;11.10;6.20;;;;;;;-6.83;100.00;100974.23;110061;1237;62665;-75
2024/01/13 04:58:38;;;;;;;12.20;6.90;;;;;;;-6.91;100.00;100972.34;109993;1237;61426;-75
2024/01/13 05:01:07;;;;;;;12.30;6.20;;;;;;;-6.87;100.00;100971.84;110051;1241;75239;-74
2024/01/13 05:03:36;;;;;;;17.00;7.20;;;;;;;-6.71;100.00;100968.84;110063;1239;71428;-74
2024/01/13 05:06:06;;;;;;;12.20;5.90;;;;;;;-6.69;100.00;100968.52;110075;1239;68729;-74
2024/01/13 05:08:35;;;;;;;15.00;7.50;;;;;;;-6.62;100.00;100967.00;110049;1239;72184;-73
2024/01/13 05:11:04;;;;;;;13.50;6.20;;;;;;;-6.57;100.00;100962.94;110038;1237;60305;-74
2024/01/13 05:13:33;;;;;;;15.00;8.50;;;;;;;-6.47;100.00;100956.17;110076;1238;61115;-74
2024/01/13 05:16:02;;;;;;;13.70;7.10;;;;;;;-6.47;100.00;100954.30;110083;1237;75116;-73
2024/01/13 05:18:31;;;;;;;15.20;8.40;;;;;;;-6.46;100.00;100951.10;110074;1238;71321;-73
2024/01/13 05:21:00;;;;;;;12.40;7.30;;;;;;;-6.53;100.00;100952.77;110087;1237;69999;-73
2024/01/13 05:23:28;;;;;;;17.10;8.10;;;;;;;-6.60;100.00;100949.38;110072;1238;73725;-73
2024/01/13 05:25:57;;;;;;;15.20;7.40;;;;;;;-6.40;100.00;100949.07;110023;1239;60254;-73
2024/01/13 05:28:27;;;;;;;14.70;7.20;;;;;;;-6.30;100.00;100949.06;110065;1238;60191;-73
2024/01/13 05:30:56;;;;;;;15.10;6.60;;;;;;;-6.21;100.00;100942.46;110089;1239;73183;-73
2024/01/13 05:33:26;;;;;;;15.20;7.20;;;;;;;-6.17;100.00;100939.59;109903;1238;70271;-73
2024/01/13 05:35:55;;;;;;;14.50;8.20;;;;;;;-6.16;100.00;100932.80;110076;1239;68625;-73
2024/01/13 05:38:24;;;;;;;14.50;6.10;;;;;;;-6.28;100.00;100933.98;110085;1239;71566;-73
2024/01/13 05:40:53;;;;;;;13.20;7.20;;;;;;;-6.29;100.00;100929.41;110070;1239;61124;-74
2024/01/13 05:43:22;;;;;;;13.10;7.60;;;;;;;-6.17;100.00;100922.45;110075;1238;61461;-73
2024/01/13 05:45:50;;;;;;;14.10;6.90;;;;;;;-6.26;100.00;100923.65;110035;1239;75130;-74
2024/01/13 05:48:19;;;;;;;12.30;6.70;;;;;;;-6.19;100.00;100919.58;110060;1238;71305;-74
2024/01/13 05:50:48;;;;;;;15.80;7.10;;;;;;;-6.07;100.00;100915.48;109906;1237;70204;-75
2024/01/13 05:53:17;;;;;;;17.20;8.10;;;;;;;-5.99;100.00;100914.30;110032;1238;71358;-73
2024/01/13 05:55:46;;;;;;;13.50;6.80;;;;;;;-5.93;100.00;100909.52;109852;1237;59738;-73
2024/01/13 05:58:15;;;;;;;14.40;8.30;;;;;;;-5.88;100.00;100908.66;109823;1237;58690;-73
2024/01/13 06:00:44;;;;;;;15.60;8.80;;;;;;;-5.91;100.00;100905.95;109990;1239;71521;-73
2024/01/13 06:03:14;;;;;;;13.80;8.10;;;;;;;-5.87;100.00;100903.41;109848;1239;70289;-73
2024/01/13 06:05:43;;;;;;;16.40;8.20;;;;;;;-5.72;100.00;100902.84;110008;1238;68654;-74
2024/01/13 06:08:12;;;;;;;18.20;8.50;;;;;;;-5.65;100.00;100896.89;109998;1237;73673;-74
2024/01/13 06:10:40;;;;;;;16.60;8.40;;;;;;;-5.68;100.00;100901.47;109922;1238;62234;-74
2024/01/13 06:13:09;;;;;;;13.40;7.30;;;;;;;-5.69;100.00;100898.77;109884;1237;60569;-74
2024/01/13 06:15:38;;;;;;;17.90;8.40;;;;;;;-5.60;100.00;100896.70;109846;1239;73365;-73
2024/01/13 06:18:07;;;;;;;15.20;8.10;;;;;;;-5.58;100.00;100898.23;109898;1238;70235;-74
2024/01/13 06:20:36;;;;;;;15.20;8.40;;;;;;;-5.44;100.00;100892.74;109874;1237;70652;-73
2024/01/13 06:23:06;;;;;;;21.70;9.50;;;;;;;-5.33;100.00;100898.80;109849;1239;73002;-73
2024/01/13 06:25:35;;;;;;;16.30;9.30;;;;;;;-5.44;100.00;100901.06;109871;1239;60473;-74
2024/01/13 06:28:04;;;;;;;16.20;9.10;;;;;;;-5.30;100.00;100901.18;109857;1238;59524;-74
2024/01/13 06:30:33;;;;;;;15.50;8.20;;;;;;;-5.24;100.00;100898.42;109815;1237;74360;-74
2024/01/13 06:33:40;;;;;;;20.20;9.60;;;;;;;-5.22;100.00;100902.33;109662;1237;72765;-75
2024/01/13 06:36:09;;;;;;;14.70;8.80;;;;;;;-5.26;100.00;100899.63;109745;1238;70384;-74
2024/01/13 06:38:38;;;;;;;15.90;9.10;;;;;;;-5.17;100.00;100905.36;109817;1239;72348;-73
2024/01/13 06:41:07;;;;;;;19.30;9.80;;;;;;;-5.05;100.00;100909.54;109670;1240;59560;-74
2024/01/13 06:43:36;;;;;;;17.40;11.40;;;;;;;-5.05;100.00;100907.33;109880;1238;61096;-74
2024/01/13 06:46:07;;;;;;;18.60;9.30;;;;;;;-4.88;100.00;100905.73;109863;1237;75113;-73
2024/01/13 06:48:36;;;;;;;18.40;10.30;;;;;;;-4.95;100.00;100909.83;109719;1236;69986;-73
2024/01/13 06:51:05;;;;;;;17.40;9.40;;;;;;;-4.96;100.00;100906.11;109946;1238;68661;-73
2024/01/13 06:53:34;;;;;;;18.90;9.50;;;;;;;-4.85;100.00;100901.63;109986;1238;71946;-73
2024/01/13 06:56:03;;;;;;;22.50;11.40;;;;;;;-4.81;100.00;100901.25;109982;1239;59668;-73
2024/01/13 06:58:32;;;;;;;21.80;10.30;;;;;;;-4.73;100.00;100896.09;109824;1237;58804;-73
2024/01/13 07:01:01;;;;;;;24.20;12.10;;;;;;;-4.59;100.00;100900.41;109864;1237;205456;-74
2024/01/13 07:03:31;;;;;;;21.40;11.10;;;;;;;-4.54;100.00;100900.89;109890;1240;72580;-74
2024/01/13 07:06:00;;;;;;;30.30;14.80;;;;;;;-4.46;100.00;100907.48;109811;1238;71011;-74
2024/01/13 07:08:29;;;;;;;23.60;12.40;;;;;;;-4.33;100.00;100906.34;109833;1237;74228;-74
2024/01/13 07:10:58;;;;;;;18.90;11.70;;;;;;;-4.29;100.00;100910.90;109995;1239;62286;-75
2024/01/13 07:13:27;;;;;;;24.10;12.70;;;;;;;-4.20;100.00;100907.42;110028;1239;61737;-74
2024/01/13 07:15:56;;;;;;;25.40;13.80;;;;;;;-4.16;100.00;100908.59;110019;1237;72888;-74
2024/01/13 07:18:25;;;;;;;20.40;11.50;;;;;;;-4.09;100.00;100903.75;109999;1239;71783;-74
2024/01/13 07:20:55;;;;;;;23.50;12.70;;;;;;;-4.14;100.00;100899.20;109996;1238;70094;-75
2024/01/13 07:23:24;;;;;;;23.60;11.90;;;;;;;-4.02;100.00;100898.25;109884;1236;72622;-74
2024/01/13 07:25:52;;;;;;;26.40;11.50;;;;;;;-4.06;100.00;100897.10;109849;1241;61411;-74
2024/01/13 07:28:21;;;;;;;21.50;13.20;;;;;;;-3.98;100.00;100899.41;110028;1236;59387;-75
2024/01/13 07:30:50;;;;;;;24.10;14.30;;;;;;;-3.76;100.00;100905.14;109858;1237;73077;-74
2024/01/13 07:33:19;;;;;;;21.80;12.30;;;;;;;-3.73;100.00;100902.04;110001;1238;72540;-75
2024/01/13 07:35:48;;;;;;;21.90;11.70;;;;;;;-3.64;100.00;100894.63;110026;1236;70714;-75
2024/01/13 07:38:17;;;;;;;19.70;11.40;;;;;;;-3.46;100.00;100893.06;109787;1237;73694;-74
2024/01/13 07:40:46;;;;;;;34.30;16.30;;;;;;;-3.47;100.00;100894.93;109818;1239;62405;-74
2024/01/13 07:43:15;;;;;;;24.30;14.10;;;;;;;-3.48;100.00;100888.83;110011;1239;61880;-74
2024/01/13 07:45:43;;;;;;;31.00;15.00;;;;;;;-3.39;100.00;100888.70;109992;1238;74058;-75
2024/01/13 07:48:12;;;;;;;32.20;15.80;;;;;;;-3.31;100.00;100891.86;109819;1238;71876;-74
2024/01/13 07:50:42;;;;;;;23.90;13.20;;;;;;;-3.19;100.00;100894.27;109902;1237;70557;-75
2024/01/13 07:53:10;;;;;;;23.50;12.50;;;;;;;-3.20;100.00;100891.03;109874;1237;74492;-74
2024/01/13 07:55:39;;;;;;;23.50;13.70;;;;;;;-3.15;100.00;100885.52;109790;1240;61600;-73
2024/01/13 07:58:08;;;;;;;26.00;13.80;;;;;;;-2.93;100.00;100892.20;109910;1237;59884;-75
2024/01/13 08:00:37;;;;;;;34.20;15.60;;;;;;;-2.89;100.00;100893.32;109957;1238;72442;-75
2024/01/13 08:03:06;;;;;;;24.90;14.50;;;;;;;-2.77;100.00;100896.59;109724;1238;70250;-75
2024/01/13 08:05:35;;;;;;;27.50;13.90;;;;;;;-2.54;100.00;100897.08;109786;1237;67699;-74
2024/01/13 08:08:06;;;;;;;28.80;16.60;;;;;;;-2.61;100.00;100893.95;109783;1237;72147;-73
2024/01/13 08:10:38;;;;;;;25.20;14.80;;;;;;;-2.42;100.00;100888.03;109650;1238;61811;-74
2024/01/13 08:13:07;;;;;;;26.40;13.90;;;;;;;-2.30;100.00;100882.38;109567;1238;61524;-75
2024/01/13 08:15:36;;;;;;;24.90;15.20;;;;;;;-2.73;100.00;100878.44;109667;1238;71702;-74
2024/01/13 08:18:05;;;;;;;32.20;18.30;;;;;;;-2.52;100.00;100883.08;109885;1237;71620;-74
2024/01/13 08:20:39;;;;;;;30.80;17.30;;;;;;;-2.38;100.00;100886.09;109705;1238;69053;-74
2024/01/13 08:23:08;;;;;;;27.40;15.40;;;;;;;-2.33;100.00;100888.73;109891;1238;71319;-75
2024/01/13 08:25:37;;;;;;;27.90;16.20;;;;;;;-2.27;100.00;100886.59;109892;1238;62099;-75
2024/01/13 08:28:07;;;;;;;30.10;17.50;;;;;;;-1.98;100.00;100888.30;109891;1238;60483;-75
2024/01/13 08:30:37;;;;;;;34.70;18.70;;;;;;;-1.75;100.00;100891.48;109952;1237;71627;-74
2024/01/13 08:33:09;;;;;;;32.30;18.00;;;;;;;-1.51;100.00;100893.57;109975;1237;69583;-74
2024/01/13 08:35:38;;;;;;;29.90;17.70;;;;;;;-1.38;100.00;100888.86;109850;1238;68751;-74
2024/01/13 08:38:07;;;;;;;32.30;17.80;;;;;;;-1.30;100.00;100893.50;109821;1238;71813;-74
2024/01/13 08:40:36;;;;;;;30.60;18.10;;;;;;;-1.20;100.00;100892.77;109745;1241;58893;-74
2024/01/13 08:43:05;;;;;;;35.20;19.50;;;;;;;-1.17;100.00;100892.71;109884;1237;59587;-75
2024/01/13 08:45:35;;;;;;;42.00;23.70;;;;;;;-1.24;100.00;100893.52;109777;1237;72414;-75
2024/01/13 08:48:05;;;;;;;44.00;26.70;;;;;;;-1.22;100.00;100887.00;109783;1238;69601;-74
2024/01/13 08:50:38;;;;;;;34.50;20.60;;;;;;;-1.18;100.00;100896.83;109590;1238;69653;-75
2024/01/13 08:53:08;;;;;;;26.60;15.40;;;;;;;-1.46;100.00;100897.40;109587;1238;73811;-74
2024/01/13 08:55:36;;;;;;;27.30;17.10;;;;;;;-1.33;100.00;100899.69;109622;1239;60776;-74
2024/01/13 08:58:05;;;;;;;27.50;16.60;;;;;;;-1.33;100.00;100897.48;109680;1238;58873;-75
2024/01/13 09:00:34;;;;;;;32.10;17.80;;;;;;;-1.43;100.00;100898.55;109676;1240;72447;-74
2024/01/13 09:03:03;;;;;;;37.60;22.00;;;;;;;-1.39;100.00;100897.95;109626;1240;70457;-74
2024/01/13 09:05:32;;;;;;;35.10;18.30;;;;;;;-1.17;100.00;100894.58;109786;1237;69017;-74
2024/01/13 09:08:04;;;;;;;35.30;18.70;;;;;;;-1.10;100.00;100891.70;109766;1238;71871;-74
2024/01/13 09:10:33;;;;;;;31.70;19.70;;;;;;;-1.05;100.00;100888.34;109759;1238;58887;-74
2024/01/13 09:13:04;;;;;;;34.70;21.40;;;;;;;-0.81;100.00;100884.55;109769;1238;59369;-74
2024/01/13 09:15:33;;;;;;;34.70;21.20;;;;;;;-0.77;100.00;100882.76;109755;1237;72388;-73
2024/01/13 09:18:03;;;;;;;35.80;20.40;;;;;;;-0.77;100.00;100880.20;109758;1238;70334;-75
2024/01/13 09:20:32;;;;;;;36.70;20.80;;;;;;;-0.54;100.00;100878.83;109753;1238;70175;-73
2024/01/13 09:23:01;;;;;;;34.00;18.40;;;;;;;-0.48;100.00;100880.05;109755;1238;74127;-75
2024/01/13 09:25:33;;;;;;;39.80;20.70;;;;;;;-0.23;100.00;100873.44;109617;1240;58343;-74
2024/01/13 09:28:03;;;;;;;39.40;19.60;;;;;;;-0.22;100.00;100873.05;109538;1238;61339;-74
2024/01/13 09:30:31;;;;;;;32.30;16.90;;;;;;;-0.03;100.00;100875.33;109744;1238;74145;-74
2024/01/13 09:33:00;;;;;;;27.30;16.10;;;;;;;0.19;100.00;100873.52;109715;1237;72535;-75
2024/01/13 09:35:31;;;;;;;33.50;18.20;;;;;;;0.10;100.00;100869.83;109710;1238;69194;-73
2024/01/13 09:38:00;;;;;;;31.50;17.90;;;;;;;0.14;100.00;100869.21;109633;1238;73234;-73
2024/01/13 09:40:29;;;;;;;24.00;12.30;;;;;;;0.17;100.00;100864.51;109548;1238;59319;-74
2024/01/13 09:43:23;;;;;;;28.10;14.90;;;;;;;0.35;100.00;100861.62;109777;1237;59835;-74
2024/01/13 09:45:52;;;;;;;28.50;16.00;;;;;;;0.15;100.00;100860.11;109655;1238;72429;-73
2024/01/13 09:48:29;;;;;;;33.00;17.40;;;;;;;0.42;100.00;100858.50;109749;1238;72946;-73
2024/01/13 09:50:59;;;;;;;34.20;17.20;;;;;;;0.58;100.00;100860.80;109770;1240;69400;-73
2024/01/13 09:53:35;;;;;;;34.80;17.10;;;;;;;0.53;100.00;100857.02;109715;1238;73515;-73
2024/01/13 09:56:13;;;;;;;29.10;15.40;;;;;;;0.69;100.00;100856.02;109623;1240;60970;-75
2024/01/13 09:58:42;;;;;;;20.50;12.60;;;;;;;0.71;100.00;100858.55;109722;1238;61624;-73
2024/01/13 10:01:11;;;;;;;23.50;14.70;;;;;;;0.70;100.00;100860.61;109725;1237;74345;-73
2024/01/13 10:03:56;;;;;;;23.40;14.70;;;;;;;0.77;100.00;100858.70;109681;1238;71730;-74
2024/01/13 10:06:31;;;;;;;28.70;15.60;;;;;;;0.87;100.00;100859.63;109743;1240;67986;-74
2024/01/13 10:09:02;;;;;;;27.20;14.60;;;;;;;0.87;100.00;100859.42;109577;1238;73233;-74
2024/01/13 10:11:51;;;;;;;26.90;14.70;;;;;;;1.07;100.00;100864.33;109649;1240;59492;-74
2024/01/13 10:14:22;;;;;;;29.30;15.70;;;;;;;1.06;100.00;100861.27;109716;1238;61117;-73
2024/01/13 10:16:51;;;;;;;27.40;14.70;;;;;;;1.15;100.00;100860.80;109593;1238;73418;-74
2024/01/13 10:19:24;;;;;;;33.00;17.50;;;;;;;1.17;100.00;100861.80;109723;1240;70312;-73
2024/01/13 10:21:57;;;;;;;31.80;16.70;;;;;;;1.32;100.00;100863.02;109636;1238;68676;-73
2024/01/13 10:24:28;;;;;;;36.60;19.00;;;;;;;1.42;100.00;100861.00;109695;1241;70912;-73
2024/01/13 10:26:57;;;;;;;27.50;14.30;;;;;;;1.47;100.00;100864.95;109678;1241;59341;-73
2024/01/13 10:29:26;;;;;;;33.80;17.60;;;;;;;1.57;100.00;100866.35;109651;1238;61669;-74
2024/01/13 10:31:54;;;;;;;35.90;17.70;;;;;;;1.46;100.00;100866.18;109737;1238;74092;-73
2024/01/13 10:34:24;;;;;;;38.90;19.90;;;;;;;1.48;100.00;100866.98;109743;1237;71582;-73
2024/01/13 10:36:53;;;;;;;30.90;16.70;;;;;;;1.43;100.00;100866.27;109733;1237;70980;-73
2024/01/13 10:39:22;;;;;;;31.40;17.10;;;;;;;1.36;100.00;100865.65;109662;1238;74360;-73
2024/01/13 10:41:51;;;;;;;31.10;14.90;;;;;;;1.24;100.00;100860.02;109626;1240;60616;-73
2024/01/13 10:44:26;;;;;;;28.70;15.90;;;;;;;1.27;100.00;100858.89;109675;1240;58328;-74
2024/01/13 10:46:58;;;;;;;33.20;17.60;;;;;;;1.28;100.00;100852.85;109685;1237;72280;-73
2024/01/13 10:49:34;;;;;;;46.80;21.90;;;;;;;1.25;100.00;100859.98;109678;1240;69770;-74
2024/01/13 10:52:03;;;;;;;41.90;20.60;;;;;;;1.13;100.00;100860.52;109653;1238;69761;-73
2024/01/13 10:54:33;;;;;;;35.70;17.80;;;;;;;1.21;100.00;100864.42;109781;1238;71996;-73
2024/01/13 10:57:03;;;;;;;21.90;13.10;;;;;;;1.01;100.00;100862.27;109687;1242;59979;-74
2024/01/13 10:59:35;;;;;;;27.60;14.80;;;;;;;0.92;100.00;100864.44;109708;1239;60765;-74
2024/01/13 11:02:10;;;;;;;21.90;12.10;;;;;;;0.98;100.00;100857.37;109911;1237;74962;-74
2024/01/13 11:04:45;;;;;;;26.80;14.20;;;;;;;1.08;100.00;100858.30;109630;1241;71833;-73
2024/01/13 11:07:14;;;;;;;24.50;13.60;;;;;;;1.17;100.00;100859.71;109756;1240;67408;-73
2024/01/13 11:09:44;;;;;;;31.80;16.30;;;;;;;1.19;100.00;100860.86;109642;1240;71899;-73